Big Piney River (Missouri), Fort Leonard Wood (06930060)

StateMissouriLatestPoor (237 cfs)
RiverBig Piney RiverRatingObservedEstimated
Updated2022-09-25 22:00 (56 minutes ago)Flood - The river is flooding. Obstacles can be treacherous or deadly. The river should be avoided at this stage for casual trips and definitely for the inexperienced. Trips should be attempted only with protective gear and equipment.Flood(none)3251
Discharge237 cfs (median: 222 cfs)High - The river is high and potentially dangerous, especially for the young and / or inexperienced. Normal stream obstacles are sometimes difficult to navigate. Extended distances can be attempted, but canoe travel may not be advisable.High(none)1502
Height1.99 feetGood - Conditions are ideal for a canoe or kayak. Boats typically will drag on fewer than one-quarter of riffles, if at all, and portages are unnecessary or rare. Normal float lengths can be attempted without a problem.Good(none)706
TrendFalling (falling over 24 hours)Low - River is low but can still be floated. Some riffles are okay but most come with significant dragging and might need a portage. Float lengths should be reduced to accommodate low flow, dragging, and portages.Low(none)414
USGSExternal icon USGS Site (External icon Duck Duck Go Maps)Poor - River is too low to float comfortably. Most or all riffles will drag or must be portaged and some obstacles (such as slick shelf rock) cause undue problems. Avoid the river at this stage for casual paddling trips.Poor(none)212

Trending Data

Plot Image

Trips for Big Piney River (Missouri), Fort Leonard Wood (06930060)

DateStartEndDistanceConditionDischargeHeightFishingDetails

A total of 0 rows are displayed.

Condition Descriptions

Fishing Conditions

Fish Species

Notes

Classic Trip List

The classic River Trips application is still available for use. It is updated with the new system using a data retrofit. It is no longer maintained. The original River Trips application is no longer updated (as of 1 Dec 2016) but can be checked for errors or for the condition of the data before it was converted to the new system.

Gauge Data Table

ObservationHeightDischargeMaximum
Discharge
Minimum
Discharge
Mean
Discharge
P05P10P20P25P50
(Median)
P75P80P90P95
2022-09-25 22:00 1.99 237 598 (2009) 123 (2001) 239 124 136 146 147 222 261 287 437 580
2022-09-25 21:00 2.00 239 598 (2009) 123 (2001) 239 124 136 146 147 222 261 287 437 580
2022-09-25 20:00 2.01 242 598 (2009) 123 (2001) 239 124 136 146 147 222 261 287 437 580
2022-09-25 19:00 2.01 242 598 (2009) 123 (2001) 239 124 136 146 147 222 261 287 437 580
2022-09-25 18:00 2.01 242 598 (2009) 123 (2001) 239 124 136 146 147 222 261 287 437 580
2022-09-25 17:00 2.01 242 598 (2009) 123 (2001) 239 124 136 146 147 222 261 287 437 580
2022-09-25 16:00 2.01 242 598 (2009) 123 (2001) 239 124 136 146 147 222 261 287 437 580
2022-09-25 15:00 2.00 239 598 (2009) 123 (2001) 239 124 136 146 147 222 261 287 437 580
2022-09-25 14:00 2.01 242 598 (2009) 123 (2001) 239 124 136 146 147 222 261 287 437 580
2022-09-25 13:00 2.01 242 598 (2009) 123 (2001) 239 124 136 146 147 222 261 287 437 580
2022-09-25 12:00 2.02 244 598 (2009) 123 (2001) 239 124 136 146 147 222 261 287 437 580
2022-09-25 11:00 2.03 247 598 (2009) 123 (2001) 239 124 136 146 147 222 261 287 437 580
2022-09-25 10:00 2.02 244 598 (2009) 123 (2001) 239 124 136 146 147 222 261 287 437 580
2022-09-25 09:00 2.03 247 598 (2009) 123 (2001) 239 124 136 146 147 222 261 287 437 580
2022-09-25 08:00 2.02 244 598 (2009) 123 (2001) 239 124 136 146 147 222 261 287 437 580
2022-09-25 07:00 2.02 244 598 (2009) 123 (2001) 239 124 136 146 147 222 261 287 437 580
2022-09-25 06:00 2.01 242 598 (2009) 123 (2001) 239 124 136 146 147 222 261 287 437 580
2022-09-25 05:00 2.00 239 598 (2009) 123 (2001) 239 124 136 146 147 222 261 287 437 580
2022-09-25 04:00 2.00 239 598 (2009) 123 (2001) 239 124 136 146 147 222 261 287 437 580
2022-09-25 03:00 2.00 239 598 (2009) 123 (2001) 239 124 136 146 147 222 261 287 437 580
2022-09-25 02:00 2.00 239 598 (2009) 123 (2001) 239 124 136 146 147 222 261 287 437 580
2022-09-25 01:00 2.02 244 598 (2009) 123 (2001) 239 124 136 146 147 222 261 287 437 580
2022-09-25 00:00 2.02 244 598 (2009) 123 (2001) 239 124 136 146 147 222 261 287 437 580
2022-09-24 23:00 2.03 247 820 (2009) 124 (2001) 253 125 131 144 145 226 266 305 479 776
2022-09-24 22:00 2.03 247 820 (2009) 124 (2001) 253 125 131 144 145 226 266 305 479 776
2022-09-24 21:00 2.03 247 820 (2009) 124 (2001) 253 125 131 144 145 226 266 305 479 776
2022-09-24 20:00 2.03 247 820 (2009) 124 (2001) 253 125 131 144 145 226 266 305 479 776
2022-09-24 19:00 2.03 247 820 (2009) 124 (2001) 253 125 131 144 145 226 266 305 479 776
2022-09-24 18:00 2.02 244 820 (2009) 124 (2001) 253 125 131 144 145 226 266 305 479 776
2022-09-24 17:00 2.02 244 820 (2009) 124 (2001) 253 125 131 144 145 226 266 305 479 776
2022-09-24 16:00 2.02 244 820 (2009) 124 (2001) 253 125 131 144 145 226 266 305 479 776
2022-09-24 15:00 2.02 244 820 (2009) 124 (2001) 253 125 131 144 145 226 266 305 479 776
2022-09-24 14:00 2.03 247 820 (2009) 124 (2001) 253 125 131 144 145 226 266 305 479 776
2022-09-24 13:00 2.03 247 820 (2009) 124 (2001) 253 125 131 144 145 226 266 305 479 776
2022-09-24 12:00 2.03 247 820 (2009) 124 (2001) 253 125 131 144 145 226 266 305 479 776
2022-09-24 11:00 2.02 244 820 (2009) 124 (2001) 253 125 131 144 145 226 266 305 479 776
2022-09-24 10:00 2.01 242 820 (2009) 124 (2001) 253 125 131 144 145 226 266 305 479 776
2022-09-24 09:00 2.02 244 820 (2009) 124 (2001) 253 125 131 144 145 226 266 305 479 776
2022-09-24 08:00 2.01 242 820 (2009) 124 (2001) 253 125 131 144 145 226 266 305 479 776
2022-09-24 07:00 2.02 244 820 (2009) 124 (2001) 253 125 131 144 145 226 266 305 479 776
2022-09-24 06:00 2.03 247 820 (2009) 124 (2001) 253 125 131 144 145 226 266 305 479 776
2022-09-24 05:00 2.03 247 820 (2009) 124 (2001) 253 125 131 144 145 226 266 305 479 776
2022-09-24 04:00 2.02 244 820 (2009) 124 (2001) 253 125 131 144 145 226 266 305 479 776
2022-09-24 03:00 2.02 244 820 (2009) 124 (2001) 253 125 131 144 145 226 266 305 479 776
2022-09-24 02:00 2.02 244 820 (2009) 124 (2001) 253 125 131 144 145 226 266 305 479 776
2022-09-24 01:00 2.02 244 820 (2009) 124 (2001) 253 125 131 144 145 226 266 305 479 776
2022-09-24 00:00 2.03 247 820 (2009) 124 (2001) 253 125 131 144 145 226 266 305 479 776
2022-09-23 23:00 2.03 247 1420 (2009) 116 (2000) 288 117 129 145 148 223 278 333 525 1290
2022-09-23 22:00 2.04 250 1420 (2009) 116 (2000) 288 117 129 145 148 223 278 333 525 1290
2022-09-23 21:00 2.03 247 1420 (2009) 116 (2000) 288 117 129 145 148 223 278 333 525 1290
2022-09-23 20:00 2.03 247 1420 (2009) 116 (2000) 288 117 129 145 148 223 278 333 525 1290
2022-09-23 19:00 2.03 247 1420 (2009) 116 (2000) 288 117 129 145 148 223 278 333 525 1290
2022-09-23 18:00 2.04 250 1420 (2009) 116 (2000) 288 117 129 145 148 223 278 333 525 1290
2022-09-23 17:00 2.03 247 1420 (2009) 116 (2000) 288 117 129 145 148 223 278 333 525 1290
2022-09-23 16:00 2.04 250 1420 (2009) 116 (2000) 288 117 129 145 148 223 278 333 525 1290
2022-09-23 15:00 2.04 250 1420 (2009) 116 (2000) 288 117 129 145 148 223 278 333 525 1290
2022-09-23 14:00 2.04 250 1420 (2009) 116 (2000) 288 117 129 145 148 223 278 333 525 1290
2022-09-23 13:00 2.04 250 1420 (2009) 116 (2000) 288 117 129 145 148 223 278 333 525 1290
2022-09-23 12:00 2.04 250 1420 (2009) 116 (2000) 288 117 129 145 148 223 278 333 525 1290
2022-09-23 11:00 2.04 250 1420 (2009) 116 (2000) 288 117 129 145 148 223 278 333 525 1290
2022-09-23 10:00 2.05 252 1420 (2009) 116 (2000) 288 117 129 145 148 223 278 333 525 1290
2022-09-23 09:00 2.05 252 1420 (2009) 116 (2000) 288 117 129 145 148 223 278 333 525 1290
2022-09-23 08:00 2.06 255 1420 (2009) 116 (2000) 288 117 129 145 148 223 278 333 525 1290
2022-09-23 07:00 2.06 255 1420 (2009) 116 (2000) 288 117 129 145 148 223 278 333 525 1290
2022-09-23 06:00 2.07 257 1420 (2009) 116 (2000) 288 117 129 145 148 223 278 333 525 1290
2022-09-23 05:00 2.07 257 1420 (2009) 116 (2000) 288 117 129 145 148 223 278 333 525 1290
2022-09-23 04:00 2.06 255 1420 (2009) 116 (2000) 288 117 129 145 148 223 278 333 525 1290
2022-09-23 03:00 2.06 255 1420 (2009) 116 (2000) 288 117 129 145 148 223 278 333 525 1290
2022-09-23 02:00 2.06 255 1420 (2009) 116 (2000) 288 117 129 145 148 223 278 333 525 1290
2022-09-23 01:00 2.06 255 1420 (2009) 116 (2000) 288 117 129 145 148 223 278 333 525 1290
2022-09-23 00:00 2.07 257 1420 (2009) 116 (2000) 288 117 129 145 148 223 278 333 525 1290
2022-09-22 23:00 2.07 257 924 (2009) 115 (2000) 276 118 134 143 149 225 294 364 592 884
2022-09-22 22:00 2.07 257 924 (2009) 115 (2000) 276 118 134 143 149 225 294 364 592 884
2022-09-22 21:00 2.07 257 924 (2009) 115 (2000) 276 118 134 143 149 225 294 364 592 884
2022-09-22 20:00 2.07 257 924 (2009) 115 (2000) 276 118 134 143 149 225 294 364 592 884
2022-09-22 19:00 2.08 260 924 (2009) 115 (2000) 276 118 134 143 149 225 294 364 592 884
2022-09-22 18:00 2.07 257 924 (2009) 115 (2000) 276 118 134 143 149 225 294 364 592 884
2022-09-22 17:00 2.07 257 924 (2009) 115 (2000) 276 118 134 143 149 225 294 364 592 884
2022-09-22 16:00 2.06 255 924 (2009) 115 (2000) 276 118 134 143 149 225 294 364 592 884
2022-09-22 15:00 2.06 255 924 (2009) 115 (2000) 276 118 134 143 149 225 294 364 592 884
2022-09-22 14:00 2.05 252 924 (2009) 115 (2000) 276 118 134 143 149 225 294 364 592 884
2022-09-22 13:00 2.06 255 924 (2009) 115 (2000) 276 118 134 143 149 225 294 364 592 884
2022-09-22 12:00 2.06 255 924 (2009) 115 (2000) 276 118 134 143 149 225 294 364 592 884
2022-09-22 11:00 2.07 257 924 (2009) 115 (2000) 276 118 134 143 149 225 294 364 592 884
2022-09-22 10:00 2.07 257 924 (2009) 115 (2000) 276 118 134 143 149 225 294 364 592 884
2022-09-22 09:00 2.08 260 924 (2009) 115 (2000) 276 118 134 143 149 225 294 364 592 884
2022-09-22 08:00 2.09 263 924 (2009) 115 (2000) 276 118 134 143 149 225 294 364 592 884
2022-09-22 07:00 2.09 263 924 (2009) 115 (2000) 276 118 134 143 149 225 294 364 592 884
2022-09-22 06:00 2.08 260 924 (2009) 115 (2000) 276 118 134 143 149 225 294 364 592 884
2022-09-22 05:00 2.08 260 924 (2009) 115 (2000) 276 118 134 143 149 225 294 364 592 884
2022-09-22 04:00 2.06 255 924 (2009) 115 (2000) 276 118 134 143 149 225 294 364 592 884
2022-09-22 03:00 2.05 252 924 (2009) 115 (2000) 276 118 134 143 149 225 294 364 592 884
2022-09-22 02:00 2.03 247 924 (2009) 115 (2000) 276 118 134 143 149 225 294 364 592 884
2022-09-22 01:00 2.02 244 924 (2009) 115 (2000) 276 118 134 143 149 225 294 364 592 884
2022-09-22 00:00 2.02 244 924 (2009) 115 (2000) 276 118 134 143 149 225 294 364 592 884
2022-09-21 23:00 2.02 244 1220 (2009) 116 (2000) 303 119 139 144 155 227 304 403 679 1150
2022-09-21 22:00 2.03 247 1220 (2009) 116 (2000) 303 119 139 144 155 227 304 403 679 1150
2022-09-21 21:00 2.04 250 1220 (2009) 116 (2000) 303 119 139 144 155 227 304 403 679 1150
2022-09-21 20:00 2.05 252 1220 (2009) 116 (2000) 303 119 139 144 155 227 304 403 679 1150
2022-09-21 19:00 2.06 255 1220 (2009) 116 (2000) 303 119 139 144 155 227 304 403 679 1150
2022-09-21 18:00 2.04 250 1220 (2009) 116 (2000) 303 119 139 144 155 227 304 403 679 1150
2022-09-21 17:00 2.04 250 1220 (2009) 116 (2000) 303 119 139 144 155 227 304 403 679 1150
2022-09-21 16:00 2.04 250 1220 (2009) 116 (2000) 303 119 139 144 155 227 304 403 679 1150
2022-09-21 15:00 2.03 247 1220 (2009) 116 (2000) 303 119 139 144 155 227 304 403 679 1150
2022-09-21 14:00 2.02 244 1220 (2009) 116 (2000) 303 119 139 144 155 227 304 403 679 1150
2022-09-21 13:00 2.02 244 1220 (2009) 116 (2000) 303 119 139 144 155 227 304 403 679 1150
2022-09-21 12:00 2.02 244 1220 (2009) 116 (2000) 303 119 139 144 155 227 304 403 679 1150
2022-09-21 11:00 2.03 247 1220 (2009) 116 (2000) 303 119 139 144 155 227 304 403 679 1150
2022-09-21 10:00 2.03 247 1220 (2009) 116 (2000) 303 119 139 144 155 227 304 403 679 1150
2022-09-21 09:00 2.03 247 1220 (2009) 116 (2000) 303 119 139 144 155 227 304 403 679 1150
2022-09-21 08:00 2.02 244 1220 (2009) 116 (2000) 303 119 139 144 155 227 304 403 679 1150
2022-09-21 07:00 2.03 247 1220 (2009) 116 (2000) 303 119 139 144 155 227 304 403 679 1150
2022-09-21 06:00 2.03 247 1220 (2009) 116 (2000) 303 119 139 144 155 227 304 403 679 1150
2022-09-21 05:00 2.03 247 1220 (2009) 116 (2000) 303 119 139 144 155 227 304 403 679 1150
2022-09-21 04:00 2.03 247 1220 (2009) 116 (2000) 303 119 139 144 155 227 304 403 679 1150
2022-09-21 03:00 2.03 247 1220 (2009) 116 (2000) 303 119 139 144 155 227 304 403 679 1150
2022-09-21 02:00 2.04 250 1220 (2009) 116 (2000) 303 119 139 144 155 227 304 403 679 1150
2022-09-21 01:00 2.03 247 1220 (2009) 116 (2000) 303 119 139 144 155 227 304 403 679 1150
2022-09-21 00:00 2.04 250 1220 (2009) 116 (2000) 303 119 139 144 155 227 304 403 679 1150
2022-09-20 23:00 2.04 250 892 (2008) 118 (2000) 277 119 133 147 157 222 268 346 576 849
2022-09-20 22:00 2.03 247 892 (2008) 118 (2000) 277 119 133 147 157 222 268 346 576 849
2022-09-20 21:00 2.03 247 892 (2008) 118 (2000) 277 119 133 147 157 222 268 346 576 849
2022-09-20 20:00 2.02 244 892 (2008) 118 (2000) 277 119 133 147 157 222 268 346 576 849
2022-09-20 19:00 2.04 250 892 (2008) 118 (2000) 277 119 133 147 157 222 268 346 576 849
2022-09-20 18:00 2.04 250 892 (2008) 118 (2000) 277 119 133 147 157 222 268 346 576 849
2022-09-20 17:00 2.04 250 892 (2008) 118 (2000) 277 119 133 147 157 222 268 346 576 849
2022-09-20 16:00 2.04 250 892 (2008) 118 (2000) 277 119 133 147 157 222 268 346 576 849
2022-09-20 15:00 2.04 250 892 (2008) 118 (2000) 277 119 133 147 157 222 268 346 576 849
2022-09-20 14:00 2.04 250 892 (2008) 118 (2000) 277 119 133 147 157 222 268 346 576 849
2022-09-20 13:00 2.05 252 892 (2008) 118 (2000) 277 119 133 147 157 222 268 346 576 849
2022-09-20 12:00 2.05 252 892 (2008) 118 (2000) 277 119 133 147 157 222 268 346 576 849
2022-09-20 11:00 2.05 252 892 (2008) 118 (2000) 277 119 133 147 157 222 268 346 576 849
2022-09-20 10:00 2.05 252 892 (2008) 118 (2000) 277 119 133 147 157 222 268 346 576 849
2022-09-20 09:00 2.04 250 892 (2008) 118 (2000) 277 119 133 147 157 222 268 346 576 849
2022-09-20 08:00 2.03 247 892 (2008) 118 (2000) 277 119 133 147 157 222 268 346 576 849
2022-09-20 07:00 2.03 247 892 (2008) 118 (2000) 277 119 133 147 157 222 268 346 576 849
2022-09-20 06:00 2.03 247 892 (2008) 118 (2000) 277 119 133 147 157 222 268 346 576 849
2022-09-20 05:00 2.04 250 892 (2008) 118 (2000) 277 119 133 147 157 222 268 346 576 849
2022-09-20 04:00 2.04 250 892 (2008) 118 (2000) 277 119 133 147 157 222 268 346 576 849
2022-09-20 03:00 2.05 252 892 (2008) 118 (2000) 277 119 133 147 157 222 268 346 576 849
2022-09-20 02:00 2.05 252 892 (2008) 118 (2000) 277 119 133 147 157 222 268 346 576 849
2022-09-20 01:00 2.05 252 892 (2008) 118 (2000) 277 119 133 147 157 222 268 346 576 849
2022-09-20 00:00 2.05 252 892 (2008) 118 (2000) 277 119 133 147 157 222 268 346 576 849
2022-09-19 23:00 2.05 252 1090 (2008) 119 (2000) 303 122 139 150 157 222 268 371 735 1040
2022-09-19 22:00 2.04 250 1090 (2008) 119 (2000) 303 122 139 150 157 222 268 371 735 1040
2022-09-19 21:00 2.05 252 1090 (2008) 119 (2000) 303 122 139 150 157 222 268 371 735 1040
2022-09-19 20:00 2.05 252 1090 (2008) 119 (2000) 303 122 139 150 157 222 268 371 735 1040
2022-09-19 19:00 2.06 255 1090 (2008) 119 (2000) 303 122 139 150 157 222 268 371 735 1040
2022-09-19 18:00 2.06 255 1090 (2008) 119 (2000) 303 122 139 150 157 222 268 371 735 1040
2022-09-19 17:00 2.06 255 1090 (2008) 119 (2000) 303 122 139 150 157 222 268 371 735 1040
2022-09-19 16:00 2.06 255 1090 (2008) 119 (2000) 303 122 139 150 157 222 268 371 735 1040
2022-09-19 15:00 2.07 257 1090 (2008) 119 (2000) 303 122 139 150 157 222 268 371 735 1040
2022-09-19 14:00 2.06 255 1090 (2008) 119 (2000) 303 122 139 150 157 222 268 371 735 1040
2022-09-19 13:00 2.06 255 1090 (2008) 119 (2000) 303 122 139 150 157 222 268 371 735 1040
2022-09-19 12:00 2.06 255 1090 (2008) 119 (2000) 303 122 139 150 157 222 268 371 735 1040
2022-09-19 11:00 2.07 257 1090 (2008) 119 (2000) 303 122 139 150 157 222 268 371 735 1040
2022-09-19 10:00 2.06 255 1090 (2008) 119 (2000) 303 122 139 150 157 222 268 371 735 1040
2022-09-19 09:00 2.07 257 1090 (2008) 119 (2000) 303 122 139 150 157 222 268 371 735 1040
2022-09-19 08:00 2.07 257 1090 (2008) 119 (2000) 303 122 139 150 157 222 268 371 735 1040
2022-09-19 07:00 2.07 257 1090 (2008) 119 (2000) 303 122 139 150 157 222 268 371 735 1040
2022-09-19 06:00 2.06 255 1090 (2008) 119 (2000) 303 122 139 150 157 222 268 371 735 1040
2022-09-19 05:00 2.05 252 1090 (2008) 119 (2000) 303 122 139 150 157 222 268 371 735 1040
2022-09-19 04:00 2.05 252 1090 (2008) 119 (2000) 303 122 139 150 157 222 268 371 735 1040
2022-09-19 03:00 2.05 252 1090 (2008) 119 (2000) 303 122 139 150 157 222 268 371 735 1040
2022-09-19 02:00 2.06 255 1090 (2008) 119 (2000) 303 122 139 150 157 222 268 371 735 1040
2022-09-19 01:00 2.07 257 1090 (2008) 119 (2000) 303 122 139 150 157 222 268 371 735 1040
2022-09-19 00:00 2.07 257 1090 (2008) 119 (2000) 303 122 139 150 157 222 268 371 735 1040
2022-09-18 23:00 2.07 257 1450 (2008) 119 (2000) 359 122 141 152 164 223 267 401 1150 1410
2022-09-18 22:00 2.07 257 1450 (2008) 119 (2000) 359 122 141 152 164 223 267 401 1150 1410
2022-09-18 21:00 2.07 257 1450 (2008) 119 (2000) 359 122 141 152 164 223 267 401 1150 1410
2022-09-18 20:00 2.08 260 1450 (2008) 119 (2000) 359 122 141 152 164 223 267 401 1150 1410
2022-09-18 19:00 2.09 263 1450 (2008) 119 (2000) 359 122 141 152 164 223 267 401 1150 1410
2022-09-18 18:00 2.08 260 1450 (2008) 119 (2000) 359 122 141 152 164 223 267 401 1150 1410
2022-09-18 17:00 2.08 260 1450 (2008) 119 (2000) 359 122 141 152 164 223 267 401 1150 1410
2022-09-18 16:00 2.09 263 1450 (2008) 119 (2000) 359 122 141 152 164 223 267 401 1150 1410
2022-09-18 15:00 2.08 260 1450 (2008) 119 (2000) 359 122 141 152 164 223 267 401 1150 1410
2022-09-18 14:00 2.08 260 1450 (2008) 119 (2000) 359 122 141 152 164 223 267 401 1150 1410
2022-09-18 13:00 2.07 257 1450 (2008) 119 (2000) 359 122 141 152 164 223 267 401 1150 1410
2022-09-18 12:00 2.06 255 1450 (2008) 119 (2000) 359 122 141 152 164 223 267 401 1150 1410
2022-09-18 11:00 2.07 257 1450 (2008) 119 (2000) 359 122 141 152 164 223 267 401 1150 1410
2022-09-18 10:00 2.08 260 1450 (2008) 119 (2000) 359 122 141 152 164 223 267 401 1150 1410
2022-09-18 09:00 2.07 257 1450 (2008) 119 (2000) 359 122 141 152 164 223 267 401 1150 1410
2022-09-18 08:00 2.08 260 1450 (2008) 119 (2000) 359 122 141 152 164 223 267 401 1150 1410
2022-09-18 07:00 2.08 260 1450 (2008) 119 (2000) 359 122 141 152 164 223 267 401 1150 1410
2022-09-18 06:00 2.08 260 1450 (2008) 119 (2000) 359 122 141 152 164 223 267 401 1150 1410
2022-09-18 05:00 2.08 260 1450 (2008) 119 (2000) 359 122 141 152 164 223 267 401 1150 1410
2022-09-18 04:00 2.08 260 1450 (2008) 119 (2000) 359 122 141 152 164 223 267 401 1150 1410
2022-09-18 03:00 2.08 260 1450 (2008) 119 (2000) 359 122 141 152 164 223 267 401 1150 1410
2022-09-18 02:00 2.08 260 1450 (2008) 119 (2000) 359 122 141 152 164 223 267 401 1150 1410
2022-09-18 01:00 2.08 260 1450 (2008) 119 (2000) 359 122 141 152 164 223 267 401 1150 1410
2022-09-18 00:00 2.08 260 1450 (2008) 119 (2000) 359 122 141 152 164 223 267 401 1150 1410

A total of 191 rows are displayed for years 2000 through 2021.